createdAt,value
2023-03-16T00:01:05.517Z,2.70
2023-03-16T00:03:35.417Z,2.85
2023-03-16T00:06:03.266Z,2.70
2023-03-16T00:08:31.116Z,2.80
2023-03-16T00:10:59.523Z,2.80
2023-03-16T00:13:27.533Z,2.80
2023-03-16T00:15:57.826Z,3.38
2023-03-16T00:18:28.187Z,3.65
2023-03-16T00:20:59.780Z,3.30
2023-03-16T00:23:28.153Z,4.03
2023-03-16T00:25:56.800Z,3.85
2023-03-16T00:28:24.789Z,4.03
2023-03-16T00:30:52.893Z,4.15
2023-03-16T00:33:20.831Z,4.15
2023-03-16T00:35:50.174Z,4.13
2023-03-16T00:38:21.773Z,4.25
2023-03-16T00:40:51.269Z,3.63
2023-03-16T00:43:19.079Z,3.58
2023-03-16T00:45:47.620Z,3.83
2023-03-16T00:48:16.499Z,3.22
2023-03-16T00:50:44.348Z,3.70
2023-03-16T00:53:13.140Z,3.35
2023-03-16T00:55:42.610Z,3.15
2023-03-16T00:58:14.872Z,3.03
2023-03-16T01:00:43.012Z,3.15
2023-03-16T01:03:10.862Z,2.83
2023-03-16T01:05:41.785Z,2.92
2023-03-16T01:08:10.209Z,3.10
2023-03-16T01:10:37.993Z,2.92
2023-03-16T01:13:07.574Z,2.83
2023-03-16T01:15:35.833Z,2.60
2023-03-16T01:18:03.688Z,3.08
2023-03-16T01:20:33.542Z,2.75
2023-03-16T01:23:02.282Z,2.78
2023-03-16T01:25:30.107Z,2.75
2023-03-16T01:27:58.081Z,2.90
2023-03-16T01:30:28.346Z,2.88
2023-03-16T01:32:56.406Z,2.95
2023-03-16T01:35:24.296Z,2.97
2023-03-16T01:37:52.142Z,2.78
2023-03-16T01:40:24.274Z,2.73
2023-03-16T01:43:05.545Z,2.80
2023-03-16T01:46:21.963Z,2.75
2023-03-16T01:49:06.300Z,2.50
2023-03-16T01:51:39.302Z,2.70
2023-03-16T01:54:10.708Z,2.65
2023-03-16T01:56:43.277Z,2.33
2023-03-16T01:59:17.295Z,2.35
2023-03-16T02:01:49.494Z,2.35
2023-03-16T02:04:33.849Z,2.40
2023-03-16T02:07:04.690Z,2.30
2023-03-16T02:09:33.154Z,2.38
2023-03-16T02:12:01.964Z,2.40
2023-03-16T02:14:31.708Z,2.10
2023-03-16T02:17:01.131Z,2.53
2023-03-16T02:19:43.238Z,2.47
2023-03-16T02:22:11.715Z,2.50
2023-03-16T02:24:39.719Z,2.30
2023-03-16T02:27:10.429Z,2.30
2023-03-16T02:30:09.810Z,2.80
2023-03-16T02:32:47.984Z,2.40
2023-03-16T02:35:15.903Z,2.30
2023-03-16T02:37:43.766Z,2.47
2023-03-16T02:40:22.408Z,2.60
2023-03-16T02:42:57.418Z,2.50
2023-03-16T02:45:33.410Z,2.25
2023-03-16T02:48:06.574Z,2.22
2023-03-16T02:50:34.506Z,2.30
2023-03-16T02:53:02.319Z,2.30
2023-03-16T02:55:30.345Z,2.30
2023-03-16T02:57:58.638Z,2.30
2023-03-16T03:00:30.038Z,2.38
2023-03-16T03:02:58.338Z,2.30
2023-03-16T03:05:26.230Z,2.10
2023-03-16T03:07:54.128Z,2.30
2023-03-16T03:10:22.170Z,2.35
2023-03-16T03:12:50.321Z,2.15
2023-03-16T03:15:19.368Z,2.10
2023-03-16T03:17:58.993Z,2.33
2023-03-16T03:20:29.754Z,2.10
2023-03-16T03:22:57.919Z,2.78
2023-03-16T03:25:25.986Z,2.13
2023-03-16T03:27:55.756Z,1.90
2023-03-16T03:30:26.432Z,2.00
2023-03-16T03:32:54.680Z,2.10
2023-03-16T03:35:24.349Z,2.55
2023-03-16T03:37:52.550Z,2.30
2023-03-16T03:40:21.517Z,2.20
2023-03-16T03:42:55.802Z,2.05
2023-03-16T03:45:24.830Z,2.05
2023-03-16T03:47:52.815Z,2.35
2023-03-16T03:50:22.254Z,1.95
2023-03-16T03:53:02.178Z,2.20
2023-03-16T03:55:33.090Z,2.33
2023-03-16T03:58:01.969Z,1.95
2023-03-16T04:00:30.276Z,2.50
2023-03-16T04:02:58.394Z,2.38
2023-03-16T04:05:34.004Z,2.00
2023-03-16T04:08:04.279Z,2.17
2023-03-16T04:10:32.546Z,2.05
2023-03-16T04:13:01.400Z,1.85
2023-03-16T04:15:33.959Z,1.98
2023-03-16T04:18:24.004Z,2.03
2023-03-16T04:20:53.174Z,2.20
2023-03-16T04:23:24.904Z,2.20
2023-03-16T04:25:54.841Z,2.13
2023-03-16T04:28:26.305Z,2.30
2023-03-16T04:30:54.994Z,1.80
2023-03-16T04:33:32.282Z,2.30
2023-03-16T04:36:02.429Z,2.50
2023-03-16T04:38:33.741Z,2.17
2023-03-16T04:41:03.068Z,3.03
2023-03-16T04:43:35.660Z,2.15
2023-03-16T04:46:16.541Z,2.20
2023-03-16T04:48:44.714Z,1.98
2023-03-16T04:51:12.643Z,2.40
2023-03-16T04:53:47.231Z,2.38
2023-03-16T04:56:23.852Z,2.00
2023-03-16T04:58:57.099Z,2.40
2023-03-16T05:01:28.110Z,2.28
2023-03-16T05:03:59.829Z,2.35
2023-03-16T05:06:29.047Z,2.40
2023-03-16T05:09:01.911Z,2.42
2023-03-16T05:11:30.843Z,2.42
2023-03-16T05:14:02.375Z,2.45
2023-03-16T05:16:32.738Z,2.70
2023-03-16T05:19:01.290Z,2.78
2023-03-16T05:21:34.148Z,2.67
2023-03-16T05:24:07.416Z,2.97
2023-03-16T05:26:35.692Z,2.50
2023-03-16T05:29:06.038Z,2.80
2023-03-16T05:31:34.216Z,2.65
2023-03-16T05:34:05.400Z,3.10
2023-03-16T05:36:35.843Z,2.90
2023-03-16T05:39:10.313Z,2.63
2023-03-16T05:41:42.946Z,2.95
2023-03-16T05:44:16.885Z,3.05
2023-03-16T05:47:23.108Z,2.95
2023-03-16T05:49:55.991Z,2.88
2023-03-16T05:52:30.875Z,3.10
2023-03-16T05:55:03.479Z,2.92
2023-03-16T05:57:31.370Z,3.30
2023-03-16T06:00:01.820Z,3.08
2023-03-16T06:02:40.208Z,3.13
2023-03-16T06:05:08.790Z,3.17
2023-03-16T06:07:40.028Z,2.90
2023-03-16T06:10:11.588Z,3.10
2023-03-16T06:12:39.824Z,3.33
2023-03-16T06:15:09.239Z,3.38
2023-03-16T06:17:38.669Z,3.17
2023-03-16T06:20:10.443Z,3.65
2023-03-16T06:22:41.196Z,3.40
2023-03-16T06:25:12.667Z,3.95
2023-03-16T06:27:42.646Z,3.40
2023-03-16T06:30:15.141Z,2.92
2023-03-16T06:32:44.383Z,3.58
2023-03-16T06:35:13.259Z,3.42
2023-03-16T06:37:46.347Z,3.80
2023-03-16T06:40:31.283Z,3.50
2023-03-16T06:42:59.148Z,3.20
2023-03-16T06:45:27.252Z,3.70
2023-03-16T06:47:56.881Z,3.38
2023-03-16T06:50:24.768Z,3.60
2023-03-16T06:52:52.619Z,3.47
2023-03-16T06:55:20.981Z,3.38
2023-03-16T06:57:51.836Z,3.20
2023-03-16T07:00:20.604Z,3.47
2023-03-16T07:02:48.409Z,3.30
2023-03-16T07:05:16.506Z,3.50
2023-03-16T07:07:45.502Z,3.47
2023-03-16T07:10:15.839Z,2.97
2023-03-16T07:12:44.171Z,2.97
2023-03-16T07:15:14.333Z,3.40
2023-03-16T07:17:42.528Z,3.45
2023-03-16T07:20:12.799Z,3.33
2023-03-16T07:22:41.662Z,3.65
2023-03-16T07:25:12.383Z,3.40
2023-03-16T07:30:20.575Z,3.20
2023-03-16T07:32:50.548Z,3.40
2023-03-16T07:35:21.680Z,3.58
2023-03-16T07:37:49.816Z,3.25
2023-03-16T07:40:18.248Z,3.30
2023-03-16T07:42:46.068Z,3.33
2023-03-16T07:45:28.689Z,3.15
2023-03-16T07:47:58.891Z,3.10
2023-03-16T07:50:38.361Z,3.00
2023-03-16T07:53:06.652Z,3.65
2023-03-16T07:55:39.057Z,3.42
2023-03-16T07:58:10.363Z,3.35
2023-03-16T08:00:42.488Z,3.55
2023-03-16T08:03:10.597Z,3.22
2023-03-16T08:05:39.317Z,3.53
2023-03-16T08:08:12.834Z,3.90
2023-03-16T08:10:41.986Z,3.53
2023-03-16T08:13:22.491Z,3.85
2023-03-16T08:15:58.412Z,3.67
2023-03-16T08:18:37.990Z,3.95
2023-03-16T08:21:07.065Z,3.63
2023-03-16T08:23:36.088Z,3.50
2023-03-16T08:26:08.698Z,3.65
2023-03-16T08:28:37.286Z,3.90
2023-03-16T08:31:12.226Z,3.72
2023-03-16T08:33:52.458Z,3.40
2023-03-16T08:36:24.234Z,3.38
2023-03-16T08:39:06.501Z,3.53
2023-03-16T08:41:40.684Z,3.58
2023-03-16T08:44:15.621Z,4.30
2023-03-16T08:46:45.007Z,3.78
2023-03-16T08:49:14.399Z,4.10
2023-03-16T08:51:44.880Z,4.05
2023-03-16T08:54:12.795Z,3.58
2023-03-16T08:56:40.632Z,3.85
2023-03-16T08:59:16.829Z,3.30
2023-03-16T09:01:53.240Z,3.60
2023-03-16T09:04:22.029Z,3.78
2023-03-16T09:07:05.849Z,3.47
2023-03-16T09:09:36.490Z,4.30
2023-03-16T09:12:05.892Z,3.70
2023-03-16T09:14:34.358Z,4.35
2023-03-16T09:17:04.258Z,3.85
2023-03-16T09:19:50.075Z,4.18
2023-03-16T09:22:19.623Z,3.88
2023-03-16T09:24:47.589Z,3.60
2023-03-16T09:27:16.447Z,3.85
2023-03-16T09:29:45.370Z,3.90
2023-03-16T09:32:15.387Z,3.83
2023-03-16T09:34:43.320Z,3.80
2023-03-16T09:37:11.438Z,3.92
2023-03-16T09:39:39.594Z,3.78
2023-03-16T09:42:20.832Z,3.92
2023-03-16T09:45:00.412Z,3.75
2023-03-16T09:47:34.413Z,3.85
2023-03-16T09:50:06.337Z,3.67
2023-03-16T09:52:42.313Z,3.50
2023-03-16T09:56:05.419Z,3.83
2023-03-16T09:59:47.069Z,3.20
2023-03-16T10:03:28.329Z,3.78
2023-03-16T10:06:19.259Z,3.42
2023-03-16T10:11:35.661Z,3.20
2023-03-16T10:14:34.743Z,3.50
2023-03-16T10:17:17.858Z,3.10
2023-03-16T10:22:26.404Z,3.70
2023-03-16T10:25:03.562Z,3.67
2023-03-16T10:27:34.474Z,3.28
2023-03-16T10:30:04.303Z,3.28
2023-03-16T10:32:35.675Z,3.20
2023-03-16T10:35:08.196Z,3.50
2023-03-16T10:37:39.174Z,3.13
2023-03-16T10:40:12.368Z,3.50
2023-03-16T10:42:41.591Z,3.13
2023-03-16T10:45:24.265Z,3.13
2023-03-16T10:47:52.402Z,2.83
2023-03-16T10:50:25.146Z,3.28
2023-03-16T10:52:58.244Z,3.47
2023-03-16T10:55:31.092Z,3.40
2023-03-16T10:57:59.822Z,2.90
2023-03-16T11:00:29.956Z,2.88
2023-03-16T11:03:00.009Z,2.88
2023-03-16T11:05:31.770Z,2.70
2023-03-16T11:08:03.729Z,2.85
2023-03-16T11:10:38.097Z,2.60
2023-03-16T11:13:14.655Z,2.63
2023-03-16T11:15:48.785Z,2.53
2023-03-16T11:18:33.405Z,2.60
2023-03-16T11:21:07.836Z,2.63
2023-03-16T11:23:42.242Z,2.88
2023-03-16T11:26:19.711Z,3.00
2023-03-16T11:28:51.673Z,2.47
2023-03-16T11:31:27.525Z,3.10
2023-03-16T11:33:57.501Z,2.67
2023-03-16T11:36:37.615Z,2.78
2023-03-16T11:39:15.847Z,2.55
2023-03-16T11:41:54.639Z,2.53
2023-03-16T11:44:32.892Z,2.78
2023-03-16T11:47:09.107Z,2.90
2023-03-16T11:49:57.091Z,3.10
2023-03-16T11:52:35.692Z,2.50
2023-03-16T11:55:22.528Z,2.67
2023-03-16T11:57:58.516Z,2.58
2023-03-16T12:00:39.449Z,2.35
2023-03-16T12:03:36.915Z,2.50
2023-03-16T12:06:23.561Z,1.90
2023-03-16T12:09:10.505Z,2.45
2023-03-16T12:11:45.545Z,2.42
2023-03-16T12:14:21.190Z,2.80
2023-03-16T12:16:55.920Z,2.72
2023-03-16T12:19:31.727Z,2.60
2023-03-16T12:22:08.046Z,2.40
2023-03-16T12:24:42.431Z,2.33
2023-03-16T12:27:17.848Z,2.58
2023-03-16T12:30:06.244Z,2.40
2023-03-16T12:32:46.659Z,2.13
2023-03-16T12:35:29.518Z,2.70
2023-03-16T12:38:06.232Z,2.58
2023-03-16T12:40:41.888Z,2.20
2023-03-16T12:43:30.182Z,2.53
2023-03-16T12:46:02.183Z,1.95
2023-03-16T12:48:33.897Z,2.00
2023-03-16T12:51:03.963Z,1.98
2023-03-16T12:53:55.236Z,1.80
2023-03-16T12:56:30.109Z,2.00
2023-03-16T12:59:01.248Z,1.70
2023-03-16T13:01:31.244Z,2.00
2023-03-16T13:04:04.606Z,1.80
2023-03-16T13:06:36.442Z,2.10
2023-03-16T13:09:07.232Z,1.98
2023-03-16T13:11:45.676Z,1.75
2023-03-16T13:14:30.906Z,1.95
2023-03-16T13:17:22.947Z,1.90
2023-03-16T13:20:01.595Z,1.90
2023-03-16T13:22:31.166Z,1.90
2023-03-16T13:25:15.507Z,1.63
2023-03-16T13:27:47.008Z,1.42
2023-03-16T13:30:21.397Z,1.38
2023-03-16T13:32:55.546Z,1.50
2023-03-16T13:35:28.165Z,1.58
2023-03-16T13:37:56.174Z,1.50
2023-03-16T13:40:27.467Z,1.35
2023-03-16T13:42:58.108Z,1.30
2023-03-16T13:45:32.681Z,1.58
2023-03-16T13:48:02.136Z,1.40
2023-03-16T13:50:33.584Z,1.52
2023-03-16T13:53:04.675Z,1.30
2023-03-16T13:55:34.657Z,1.60
2023-03-16T13:58:03.925Z,1.33
2023-03-16T14:00:36.985Z,1.20
2023-03-16T14:03:16.129Z,1.80
2023-03-16T14:05:44.441Z,1.30
2023-03-16T14:08:17.887Z,1.60
2023-03-16T14:10:46.709Z,1.38
2023-03-16T14:13:27.565Z,1.50
2023-03-16T14:15:59.726Z,1.58
2023-03-16T14:18:37.254Z,1.50
2023-03-16T14:21:09.230Z,1.38
2023-03-16T14:23:40.472Z,1.40
2023-03-16T14:26:13.920Z,1.38
2023-03-16T14:28:43.521Z,1.45
2023-03-16T14:31:14.280Z,1.50
2023-03-16T14:33:46.006Z,1.58
2023-03-16T14:36:15.956Z,2.00
2023-03-16T14:38:45.096Z,1.35
2023-03-16T14:41:24.110Z,1.50
2023-03-16T14:43:55.514Z,1.70
2023-03-16T14:46:29.582Z,1.55
2023-03-16T14:49:03.629Z,1.50
2023-03-16T14:51:32.708Z,1.42
2023-03-16T14:54:00.599Z,1.77
2023-03-16T14:56:35.104Z,1.42
2023-03-16T14:59:02.902Z,1.45
2023-03-16T15:01:32.345Z,1.40
2023-03-16T15:04:00.400Z,1.42
2023-03-16T15:06:31.135Z,1.42
2023-03-16T15:08:59.181Z,1.40
2023-03-16T15:11:31.712Z,1.75
2023-03-16T15:14:14.767Z,1.67
2023-03-16T15:16:46.675Z,1.50
2023-03-16T15:19:14.711Z,1.40
2023-03-16T15:21:43.868Z,1.83
2023-03-16T15:24:12.920Z,1.95
2023-03-16T15:26:40.797Z,1.55
2023-03-16T15:29:12.777Z,1.90
2023-03-16T15:31:41.130Z,1.73
2023-03-16T15:34:10.463Z,1.67
2023-03-16T15:36:38.720Z,1.70
2023-03-16T15:39:08.385Z,1.73
2023-03-16T15:41:47.055Z,1.73
2023-03-16T15:44:16.007Z,1.83
2023-03-16T15:46:43.897Z,1.75
2023-03-16T15:49:13.871Z,1.95
2023-03-16T15:51:41.964Z,1.65
2023-03-16T15:54:12.161Z,1.73
2023-03-16T15:56:53.308Z,1.65
2023-03-16T15:59:24.099Z,1.60
2023-03-16T16:01:52.761Z,1.60
2023-03-16T16:04:24.264Z,1.52
2023-03-16T16:06:55.060Z,1.70
2023-03-16T16:09:23.377Z,1.60
2023-03-16T16:11:51.530Z,1.80
2023-03-16T16:14:23.833Z,2.00
2023-03-16T16:16:51.905Z,1.60
2023-03-16T16:19:19.800Z,1.88
2023-03-16T16:21:49.085Z,1.80
2023-03-16T16:24:18.206Z,1.75
2023-03-16T16:26:53.264Z,1.90
2023-03-16T16:29:23.921Z,2.00
2023-03-16T16:31:52.666Z,1.83
2023-03-16T16:34:24.242Z,1.90
2023-03-16T16:36:53.967Z,1.88
2023-03-16T16:39:23.315Z,2.00
2023-03-16T16:41:54.493Z,2.03
2023-03-16T16:44:24.635Z,1.83
2023-03-16T16:46:53.661Z,2.03
2023-03-16T16:49:24.755Z,1.50
2023-03-16T16:51:54.974Z,1.80
2023-03-16T16:54:24.077Z,1.90
2023-03-16T16:56:54.521Z,1.80
2023-03-16T16:59:24.924Z,2.00
2023-03-16T17:01:53.991Z,1.90
2023-03-16T17:04:24.636Z,2.05
2023-03-16T17:06:58.773Z,2.05
2023-03-16T17:09:28.661Z,2.17
2023-03-16T17:11:59.499Z,2.30
2023-03-16T17:14:28.726Z,1.95
2023-03-16T17:16:58.054Z,2.10
2023-03-16T17:19:28.188Z,1.88
2023-03-16T17:21:59.173Z,2.13
2023-03-16T17:24:28.633Z,1.88
2023-03-16T17:26:58.705Z,2.63
2023-03-16T17:29:29.909Z,2.33
2023-03-16T17:31:57.954Z,2.30
2023-03-16T17:34:28.137Z,2.40
2023-03-16T17:36:57.693Z,1.92
2023-03-16T17:39:27.463Z,2.15
2023-03-16T17:41:58.907Z,2.10
2023-03-16T17:44:27.887Z,2.10
2023-03-16T17:46:55.657Z,2.20
2023-03-16T17:49:28.175Z,2.05
2023-03-16T17:51:57.552Z,2.20
2023-03-16T17:54:25.446Z,2.63
2023-03-16T17:56:54.188Z,2.53
2023-03-16T17:59:23.392Z,2.13
2023-03-16T18:01:52.196Z,2.40
2023-03-16T18:04:22.263Z,2.20
2023-03-16T18:06:51.140Z,2.17
2023-03-16T18:09:21.458Z,2.17
2023-03-16T18:11:51.597Z,2.40
2023-03-16T18:14:26.362Z,2.15
2023-03-16T18:16:55.230Z,2.45
2023-03-16T18:19:25.304Z,2.58
2023-03-16T18:21:55.645Z,2.20
2023-03-16T18:24:26.698Z,1.85
2023-03-16T18:26:55.298Z,2.30
2023-03-16T18:29:24.029Z,2.22
2023-03-16T18:31:55.068Z,2.40
2023-03-16T18:34:25.218Z,1.95
2023-03-16T18:36:54.943Z,2.55
2023-03-16T18:39:24.344Z,2.20
2023-03-16T18:41:52.827Z,2.20
2023-03-16T18:44:22.453Z,2.20
2023-03-16T18:46:51.800Z,1.90
2023-03-16T18:49:22.831Z,1.90
2023-03-16T18:51:53.305Z,1.90
2023-03-16T18:54:23.421Z,2.13
2023-03-16T18:56:53.777Z,2.17
2023-03-16T18:59:21.689Z,1.90
2023-03-16T19:01:49.543Z,2.00
2023-03-16T19:04:22.539Z,2.00
2023-03-16T19:06:52.067Z,1.88
2023-03-16T19:09:22.210Z,1.90
2023-03-16T19:11:50.576Z,1.75
2023-03-16T19:14:22.323Z,1.95
2023-03-16T19:16:50.732Z,2.00
2023-03-16T19:19:21.320Z,2.28
2023-03-16T19:21:50.501Z,2.00
2023-03-16T19:24:24.103Z,1.70
2023-03-16T19:26:52.633Z,1.65
2023-03-16T19:29:28.375Z,2.30
2023-03-16T19:31:57.919Z,2.10
2023-03-16T19:34:26.536Z,2.00
2023-03-16T19:36:54.438Z,1.90
2023-03-16T19:39:22.325Z,2.00
2023-03-16T19:41:55.797Z,2.10
2023-03-16T19:44:27.533Z,2.05
2023-03-16T19:46:56.152Z,1.95
2023-03-16T19:49:25.906Z,1.90
2023-03-16T19:51:55.845Z,2.13
2023-03-16T19:54:25.048Z,2.03
2023-03-16T19:56:54.283Z,2.28
2023-03-16T19:59:30.285Z,2.30
2023-03-16T20:09:53.851Z,1.92
2023-03-16T20:12:23.764Z,2.20
2023-03-16T20:14:52.455Z,2.15
2023-03-16T20:17:23.409Z,2.15
2023-03-16T20:19:53.035Z,2.42
2023-03-16T20:22:23.461Z,2.25
2023-03-16T20:24:54.404Z,2.60
2023-03-16T20:27:24.188Z,2.42
2023-03-16T20:29:52.899Z,2.45
2023-03-16T20:32:22.932Z,2.60
2023-03-16T20:34:51.500Z,2.42
2023-03-16T20:37:24.799Z,2.67
2023-03-16T20:39:54.975Z,2.72
2023-03-16T20:42:26.283Z,2.40
2023-03-16T20:44:54.135Z,2.60
2023-03-16T20:47:23.884Z,2.90
2023-03-16T20:49:57.574Z,2.97
2023-03-16T20:52:30.718Z,2.20
2023-03-16T20:55:00.264Z,2.75
2023-03-16T20:57:30.224Z,2.90
2023-03-16T20:59:59.907Z,2.95
2023-03-16T21:02:30.102Z,2.70
2023-03-16T21:04:59.790Z,2.88
2023-03-16T21:07:27.769Z,2.80
2023-03-16T21:09:55.672Z,2.58
2023-03-16T21:12:28.627Z,2.60
2023-03-16T21:17:34.409Z,2.60
2023-03-16T21:20:02.296Z,2.58
2023-03-16T21:22:31.596Z,2.35
2023-03-16T21:24:59.942Z,2.70
2023-03-16T21:27:31.249Z,2.85
2023-03-16T21:30:01.645Z,2.85
2023-03-16T21:32:30.872Z,2.60
2023-03-16T21:35:01.958Z,2.65
2023-03-16T21:37:30.273Z,2.67
2023-03-16T21:40:00.168Z,2.50
2023-03-16T21:42:30.379Z,2.50
2023-03-16T21:44:58.111Z,2.47
2023-03-16T21:47:29.631Z,2.67
2023-03-16T21:49:59.370Z,2.70
2023-03-16T21:52:30.205Z,2.38
2023-03-16T21:54:59.864Z,2.53
2023-03-16T21:57:27.623Z,2.60
2023-03-16T21:59:56.866Z,2.65
2023-03-16T22:02:27.864Z,2.53
2023-03-16T22:04:57.595Z,2.10
2023-03-16T22:07:26.577Z,2.30
2023-03-16T22:09:54.447Z,2.35
2023-03-16T22:12:22.232Z,2.55
2023-03-16T22:14:49.982Z,2.30
2023-03-16T22:17:22.762Z,2.25
2023-03-16T22:19:50.677Z,2.15
2023-03-16T22:22:18.745Z,2.20
2023-03-16T22:24:47.448Z,2.40
2023-03-16T22:27:18.734Z,2.10
2023-03-16T22:29:46.648Z,2.42
2023-03-16T22:32:22.460Z,2.15
2023-03-16T22:34:53.358Z,1.95
2023-03-16T22:37:24.124Z,2.65
2023-03-16T22:39:53.076Z,2.20
2023-03-16T22:42:27.469Z,2.00
2023-03-16T22:44:55.622Z,2.25
2023-03-16T22:47:27.146Z,2.00
2023-03-16T22:49:55.605Z,2.20
2023-03-16T22:52:28.146Z,2.05
2023-03-16T22:54:56.811Z,2.00
2023-03-16T22:57:24.619Z,1.95
2023-03-16T22:59:53.116Z,1.80
2023-03-16T23:02:26.133Z,2.00
2023-03-16T23:04:54.030Z,1.90
2023-03-16T23:07:21.819Z,2.00
2023-03-16T23:09:49.636Z,2.10
2023-03-16T23:12:22.068Z,2.50
2023-03-16T23:14:49.879Z,2.00
2023-03-16T23:17:19.055Z,2.00
2023-03-16T23:19:48.646Z,1.98
2023-03-16T23:22:16.965Z,1.80
2023-03-16T23:24:44.849Z,1.92
2023-03-16T23:27:18.916Z,2.00
2023-03-16T23:29:47.162Z,1.85
2023-03-16T23:32:16.818Z,2.10
2023-03-16T23:34:44.626Z,1.85
2023-03-16T23:37:13.877Z,2.08
2023-03-16T23:39:41.672Z,2.20
2023-03-16T23:42:10.080Z,2.08
2023-03-16T23:44:37.952Z,2.05
2023-03-16T23:47:05.962Z,2.10
2023-03-16T23:49:37.950Z,2.20
2023-03-16T23:52:06.338Z,1.98
2023-03-16T23:54:35.467Z,2.30
2023-03-16T23:57:03.454Z,2.00
2023-03-16T23:59:31.234Z,1.90
